Time;durP1;ratioP1;P1;durP2;ratioP2;P2;SDS_P1;SDS_P2;PMS_P1;PMS_P2;Temp;Humidity;BMP_temperature;BMP_pressure;BME280_temperature;BME280_humidity;BME280_pressure;Samples;Min_cycle;Max_cycle;Signal;HPM_P1;HPM_P2
2022/07/09 00:02:24;;;;;;;;;;;;;;;;;;5016077;28;19910;-20
2022/07/09 00:04:51;;;;;;;;;;;;;;;;;;4999308;28;19933;-20
2022/07/09 00:07:18;;;;;;;;;;;;;;;;;;5001290;28;19968;-19
2022/07/09 00:09:45;;;;;;;;;;;;;;;;;;4981080;28;20325;-20
2022/07/09 00:12:17;;;;;;;;;;;;;;;;;;4981066;28;20008;-20
2022/07/09 00:14:51;;;;;;;;;;;;;;;;;;4980966;28;19924;-20
2022/07/09 00:17:18;;;;;;;;;;;;;;;;;;4981214;28;19968;-20
2022/07/09 00:19:45;;;;;;;;;;;;;;;;;;4980819;28;19924;-19
2022/07/09 00:22:12;;;;;;;;;;;;;;;;;;4981245;28;19914;-20
2022/07/09 00:24:39;;;;;;;;;;;;;;;;;;4979964;28;19914;-20
2022/07/09 00:27:09;;;;;;;;;;;;;;;;;;4980215;28;19922;-20
2022/07/09 00:29:52;;;;;;;;;;;;;;;;;;4980339;28;19910;-20
2022/07/09 00:32:19;;;;;;;;;;;;;;;;;;4979164;28;19918;-20
2022/07/09 00:34:47;;;;;;;;;;;;;;;;;;4980637;28;19910;-20
2022/07/09 00:37:14;;;;;;;;;;;;;;;;;;4980096;28;19964;-20
2022/07/09 00:39:42;;;;;;;;;;;;;;;;;;4980523;28;19918;-20
2022/07/09 00:42:11;;;;;;;;;;;;;;;;;;4980724;28;19918;-20
2022/07/09 00:44:38;;;;;;;;;;;;;;;;;;4978878;28;19914;-20
2022/07/09 00:47:10;;;;;;;;;;;;;;;;;;4979239;28;19977;-20
2022/07/09 00:49:41;;;;;;;;;;;;;;;;;;4979584;28;19914;-20
2022/07/09 00:52:08;;;;;;;;;;;;;;;;;;4980439;28;19915;-20
2022/07/09 00:54:38;;;;;;;;;;;;;;;;;;4980900;28;19910;-20
2022/07/09 00:57:15;;;;;;;;;;;;;;;;;;4978387;28;19956;-20
2022/07/09 00:59:41;;;;;;;;;;;;;;;;;;4980016;28;19919;-19
2022/07/09 01:02:10;;;;;;;;;;;;;;;;;;4978239;28;20001;-20
2022/07/09 01:04:39;;;;;;;;;;;;;;;;;;4978073;28;20317;-20
2022/07/09 01:07:05;;;;;;;;;;;;;;;;;;4978719;28;19914;-20
2022/07/09 01:09:32;;;;;;;;;;;;;;;;;;4996768;28;20396;-20
2022/07/09 01:11:59;;;;;;;;;;;;;;;;;;4998903;28;20257;-19
2022/07/09 01:14:27;;;;;;;;;;;;;;;;;;4998804;28;20004;-20
2022/07/09 01:16:53;;;;;;;;;;;;;;;;;;4997773;28;20366;-20
2022/07/09 01:19:20;;;;;;;;;;;;;;;;;;5013737;28;20419;-20
2022/07/09 01:21:47;;;;;;;;;;;;;;;;;;4998471;28;19924;-20
2022/07/09 01:24:14;;;;;;;;;;;;;;;;;;4999450;28;19958;-20
2022/07/09 01:26:41;;;;;;;;;;;;;;;;;;4998211;28;19945;-19
2022/07/09 01:29:07;;;;;;;;;;;;;;;;;;5013775;28;19953;-20
2022/07/09 01:31:37;;;;;;;;;;;;;;;;;;4998279;28;19910;-20
2022/07/09 01:34:06;;;;;;;;;;;;;;;;;;4998325;28;20242;-20
2022/07/09 01:36:33;;;;;;;;;;;;;;;;;;4998483;28;19909;-20
2022/07/09 01:39:00;;;;;;;;;;;;;;;;;;4998925;28;19917;-20
2022/07/09 01:41:27;;;;;;;;;;;;;;;;;;4998868;28;19973;-20
2022/07/09 01:43:54;;;;;;;;;;;;;;;;;;5013728;28;20009;-20
2022/07/09 01:46:22;;;;;;;;;;;;;;;;;;4998666;28;19914;-20
2022/07/09 01:48:48;;;;;;;;;;;;;;;;;;5013391;28;19914;-20
2022/07/09 01:51:16;;;;;;;;;;;;;;;;;;4998316;28;19914;-20
2022/07/09 01:53:45;;;;;;;;;;;;;;;;;;4997889;28;19914;-20
2022/07/09 01:56:12;;;;;;;;;;;;;;;;;;4998476;28;19924;-20
2022/07/09 01:58:40;;;;;;;;;;;;;;;;;;4997816;28;19909;-20
2022/07/09 02:01:07;;;;;;;;;;;;;;;;;;5013489;28;19914;-20
2022/07/09 02:03:34;;;;;;;;;;;;;;;;;;5013452;28;19982;-20
2022/07/09 02:06:02;;;;;;;;;;;;;;;;;;5014039;28;19918;-19
2022/07/09 02:08:29;;;;;;;;;;;;;;;;;;4997535;28;19922;-20
2022/07/09 02:10:57;;;;;;;;;;;;;;;;;;4997928;28;20308;-20
2022/07/09 02:13:24;;;;;;;;;;;;;;;;;;4997879;28;20017;-20
2022/07/09 02:15:51;;;;;;;;;;;;;;;;;;4998143;28;20008;-20
2022/07/09 02:18:19;;;;;;;;;;;;;;;;;;4997854;28;19918;-20
2022/07/09 02:20:45;;;;;;;;;;;;;;;;;;5013063;28;19918;-20
2022/07/09 02:23:12;;;;;;;;;;;;;;;;;;4998152;28;19968;-20
2022/07/09 02:25:39;;;;;;;;;;;;;;;;;;5013249;28;20004;-20
2022/07/09 02:28:06;;;;;;;;;;;;;;;;;;5015617;28;19945;-20
2022/07/09 02:30:34;;;;;;;;;;;;;;;;;;5001726;28;20264;-20
2022/07/09 02:33:02;;;;;;;;;;;;;;;;;;5016795;28;20452;-20
2022/07/09 02:35:28;;;;;;;;;;;;;;;;;;5001928;28;19925;-20
2022/07/09 02:37:56;;;;;;;;;;;;;;;;;;5001309;28;19988;-20
2022/07/09 02:40:23;;;;;;;;;;;;;;;;;;5001399;28;19917;-20
2022/07/09 02:42:50;;;;;;;;;;;;;;;;;;5001872;28;19968;-20
2022/07/09 02:45:17;;;;;;;;;;;;;;;;;;5001677;28;19953;-20
2022/07/09 02:47:44;;;;;;;;;;;;;;;;;;5001376;28;19969;-20
2022/07/09 02:50:11;;;;;;;;;;;;;;;;;;5016866;28;19961;-20
2022/07/09 02:52:38;;;;;;;;;;;;;;;;;;5001073;28;19914;-20
2022/07/09 02:55:05;;;;;;;;;;;;;;;;;;5018092;28;19913;-20
2022/07/09 02:57:32;;;;;;;;;;;;;;;;;;5016642;28;19920;-20
2022/07/09 02:59:59;;;;;;;;;;;;;;;;;;5001180;28;20079;-20
2022/07/09 03:02:26;;;;;;;;;;;;;;;;;;5017081;28;19909;-20
2022/07/09 03:04:53;;;;;;;;;;;;;;;;;;5016506;28;19914;-20
2022/07/09 03:07:20;;;;;;;;;;;;;;;;;;5016318;28;20325;-20
2022/07/09 03:09:47;;;;;;;;;;;;;;;;;;5000414;28;19925;-20
2022/07/09 03:12:14;;;;;;;;;;;;;;;;;;5000941;28;19985;-20
2022/07/09 03:14:41;;;;;;;;;;;;;;;;;;5001139;28;19956;-20
2022/07/09 03:34:05;;;;;;;;;;;;;;;;;;5033123;23;19961;-24
2022/07/09 03:36:33;;;;;;;;;;;;;;;;;;5000582;28;20052;-25
2022/07/09 03:39:00;;;;;;;;;;;;;;;;;;4982759;28;20008;-24
2022/07/09 03:41:26;;;;;;;;;;;;;;;;;;5000345;28;20034;-24
2022/07/09 03:43:53;;;;;;;;;;;;;;;;;;5000359;28;19914;-24
2022/07/09 03:46:20;;;;;;;;;;;;;;;;;;4983372;28;19917;-25
2022/07/09 03:48:48;;;;;;;;;;;;;;;;;;5000309;28;19913;-24
2022/07/09 03:51:16;;;;;;;;;;;;;;;;;;5000700;28;20296;-25
2022/07/09 03:53:43;;;;;;;;;;;;;;;;;;4982955;28;19942;-25
2022/07/09 03:56:12;;;;;;;;;;;;;;;;;;4983555;28;20382;-24
2022/07/09 03:58:38;;;;;;;;;;;;;;;;;;4999944;28;20288;-24
2022/07/09 04:01:06;;;;;;;;;;;;;;;;;;4982527;28;19926;-24
2022/07/09 04:03:33;;;;;;;;;;;;;;;;;;4982829;28;19936;-25
2022/07/09 04:06:00;;;;;;;;;;;;;;;;;;4983119;28;19914;-24
2022/07/09 04:08:27;;;;;;;;;;;;;;;;;;5000944;28;20399;-24
2022/07/09 04:10:54;;;;;;;;;;;;;;;;;;5000339;28;19914;-24
2022/07/09 04:13:22;;;;;;;;;;;;;;;;;;4999921;28;19946;-25
2022/07/09 04:15:49;;;;;;;;;;;;;;;;;;4982952;28;20020;-25
2022/07/09 04:18:16;;;;;;;;;;;;;;;;;;4999657;28;19976;-24
2022/07/09 04:20:44;;;;;;;;;;;;;;;;;;4983084;28;19953;-25
2022/07/09 04:23:10;;;;;;;;;;;;;;;;;;5000171;28;19917;-25
2022/07/09 04:25:37;;;;;;;;;;;;;;;;;;4999690;28;19957;-24
2022/07/09 04:28:06;;;;;;;;;;;;;;;;;;4999398;28;20055;-25
2022/07/09 04:30:33;;;;;;;;;;;;;;;;;;4999650;28;19922;-25
2022/07/09 04:33:00;;;;;;;;;;;;;;;;;;4982426;28;19910;-25
2022/07/09 04:35:30;;;;;;;;;;;;;;;;;;4999599;28;20383;-24
2022/07/09 04:37:57;;;;;;;;;;;;;;;;;;4999620;28;20424;-24
2022/07/09 04:40:24;;;;;;;;;;;;;;;;;;4999553;28;19921;-24
2022/07/09 04:42:51;;;;;;;;;;;;;;;;;;4999518;28;19997;-24
2022/07/09 04:45:20;;;;;;;;;;;;;;;;;;4982130;28;20006;-24
2022/07/09 04:47:47;;;;;;;;;;;;;;;;;;4982115;28;19914;-24
2022/07/09 04:50:14;;;;;;;;;;;;;;;;;;4999005;28;19910;-24
2022/07/09 04:52:41;;;;;;;;;;;;;;;;;;4999079;28;20356;-25
2022/07/09 04:55:10;;;;;;;;;;;;;;;;;;4999208;28;19921;-25
2022/07/09 04:57:37;;;;;;;;;;;;;;;;;;4981953;28;19922;-24
2022/07/09 05:00:05;;;;;;;;;;;;;;;;;;4982263;28;20270;-24
2022/07/09 05:02:33;;;;;;;;;;;;;;;;;;4998679;28;20304;-25
2022/07/09 05:04:59;;;;;;;;;;;;;;;;;;4999154;28;20300;-25
2022/07/09 05:07:26;;;;;;;;;;;;;;;;;;4999076;28;19920;-25
2022/07/09 05:09:56;;;;;;;;;;;;;;;;;;4999117;28;20009;-24
2022/07/09 05:12:24;;;;;;;;;;;;;;;;;;4999255;28;19941;-24
2022/07/09 05:14:51;;;;;;;;;;;;;;;;;;4999037;28;19918;-24
2022/07/09 05:17:18;;;;;;;;;;;;;;;;;;4999425;28;20255;-24
2022/07/09 05:19:46;;;;;;;;;;;;;;;;;;4998395;28;20237;-24
2022/07/09 05:22:12;;;;;;;;;;;;;;;;;;4998908;28;19910;-25
2022/07/09 05:24:40;;;;;;;;;;;;;;;;;;4998559;28;20020;-24
2022/07/09 05:27:09;;;;;;;;;;;;;;;;;;4999153;28;20051;-24
2022/07/09 05:29:36;;;;;;;;;;;;;;;;;;4998214;28;20351;-24
2022/07/09 05:32:03;;;;;;;;;;;;;;;;;;4998884;28;19914;-24
2022/07/09 05:34:30;;;;;;;;;;;;;;;;;;4981186;28;19929;-24
2022/07/09 05:36:57;;;;;;;;;;;;;;;;;;4998591;28;19941;-24
2022/07/09 05:39:24;;;;;;;;;;;;;;;;;;4997824;28;19955;-24
2022/07/09 05:41:51;;;;;;;;;;;;;;;;;;4997393;28;20409;-24
2022/07/09 05:44:20;;;;;;;;;;;;;;;;;;4998368;28;20012;-24
2022/07/09 05:46:48;;;;;;;;;;;;;;;;;;4997030;28;20000;-24
2022/07/09 06:03:25;;;;;;;;;;;;;;;;;;5362656;23;19973;-24
2022/07/09 06:05:52;;;;;;;;;;;;;;;;;;4997952;28;20280;-24
2022/07/09 06:08:19;;;;;;;;;;;;;;;;;;4998324;28;19917;-25
2022/07/09 06:10:48;;;;;;;;;;;;;;;;;;4998768;28;19913;-25
2022/07/09 06:13:15;;;;;;;;;;;;;;;;;;4997905;28;19921;-25
2022/07/09 06:15:42;;;;;;;;;;;;;;;;;;4998468;28;19918;-25
2022/07/09 06:18:09;;;;;;;;;;;;;;;;;;4998409;28;19941;-24
2022/07/09 06:20:39;;;;;;;;;;;;;;;;;;4998029;28;19920;-25
2022/07/09 06:23:07;;;;;;;;;;;;;;;;;;4997765;28;19925;-24
2022/07/09 06:25:34;;;;;;;;;;;;;;;;;;4981534;28;19910;-25
2022/07/09 06:28:01;;;;;;;;;;;;;;;;;;4998371;28;19925;-25
2022/07/09 06:30:31;;;;;;;;;;;;;;;;;;4997944;28;19937;-25
2022/07/09 06:32:59;;;;;;;;;;;;;;;;;;4997845;28;19914;-24
2022/07/09 06:35:27;;;;;;;;;;;;;;;;;;4981273;28;20371;-24
2022/07/09 06:37:54;;;;;;;;;;;;;;;;;;4981554;28;19914;-24
2022/07/09 06:40:22;;;;;;;;;;;;;;;;;;4980606;28;19913;-24
2022/07/09 06:42:49;;;;;;;;;;;;;;;;;;4997965;28;19918;-25
2022/07/09 06:45:16;;;;;;;;;;;;;;;;;;4980886;28;19910;-24
2022/07/09 06:47:44;;;;;;;;;;;;;;;;;;4997699;28;19921;-24
2022/07/09 06:50:11;;;;;;;;;;;;;;;;;;4998338;28;19972;-24
2022/07/09 06:52:39;;;;;;;;;;;;;;;;;;4998032;28;19918;-24
2022/07/09 06:55:06;;;;;;;;;;;;;;;;;;4998418;28;20395;-25
2022/07/09 06:57:34;;;;;;;;;;;;;;;;;;4997772;28;19968;-25
2022/07/09 07:00:02;;;;;;;;;;;;;;;;;;4997897;28;19914;-24
2022/07/09 07:02:29;;;;;;;;;;;;;;;;;;4997746;28;19991;-25
2022/07/09 07:04:56;;;;;;;;;;;;;;;;;;4998158;28;19965;-25
2022/07/09 07:07:23;;;;;;;;;;;;;;;;;;4997603;28;19944;-25
2022/07/09 07:09:52;;;;;;;;;;;;;;;;;;4998052;28;19927;-25
2022/07/09 07:12:19;;;;;;;;;;;;;;;;;;4997396;28;19914;-24
2022/07/09 07:14:47;;;;;;;;;;;;;;;;;;4998388;28;19914;-25
2022/07/09 07:17:14;;;;;;;;;;;;;;;;;;5000879;28;19910;-24
2022/07/09 07:19:41;;;;;;;;;;;;;;;;;;4984037;28;19917;-25
2022/07/09 07:22:09;;;;;;;;;;;;;;;;;;5000692;28;19979;-24
2022/07/09 07:24:37;;;;;;;;;;;;;;;;;;5002201;28;19924;-24
2022/07/09 07:27:04;;;;;;;;;;;;;;;;;;4984358;28;19914;-25
2022/07/09 07:29:35;;;;;;;;;;;;;;;;;;4984081;28;20005;-24
2022/07/09 07:32:02;;;;;;;;;;;;;;;;;;5000672;28;20013;-24
2022/07/09 07:34:29;;;;;;;;;;;;;;;;;;5000877;28;19937;-24
2022/07/09 07:36:57;;;;;;;;;;;;;;;;;;5001683;28;19925;-25
2022/07/09 07:39:26;;;;;;;;;;;;;;;;;;5000355;28;20312;-24
2022/07/09 07:41:55;;;;;;;;;;;;;;;;;;5000958;28;20353;-24
2022/07/09 07:44:22;;;;;;;;;;;;;;;;;;4983792;28;19964;-25
2022/07/09 07:46:50;;;;;;;;;;;;;;;;;;4983471;28;19951;-27
2022/07/09 07:49:18;;;;;;;;;;;;;;;;;;5000865;28;19913;-25
2022/07/09 07:51:45;;;;;;;;;;;;;;;;;;5001099;28;19968;-27
2022/07/09 07:54:12;;;;;;;;;;;;;;;;;;5000373;28;20004;-32
2022/07/09 07:56:41;;;;;;;;;;;;;;;;;;5000387;28;20005;-31
2022/07/09 07:59:08;;;;;;;;;;;;;;;;;;4983304;28;19922;-27
2022/07/09 08:01:35;;;;;;;;;;;;;;;;;;5000217;28;19914;-26
2022/07/09 08:04:02;;;;;;;;;;;;;;;;;;5000233;28;20378;-29
2022/07/09 08:06:29;;;;;;;;;;;;;;;;;;4982832;28;19914;-32
2022/07/09 08:08:56;;;;;;;;;;;;;;;;;;5000339;28;19922;-29
2022/07/09 08:11:24;;;;;;;;;;;;;;;;;;5000020;28;19982;-28
2022/07/09 08:13:51;;;;;;;;;;;;;;;;;;4999998;28;19925;-29
2022/07/09 08:16:19;;;;;;;;;;;;;;;;;;4983373;28;19979;-26
2022/07/09 08:18:47;;;;;;;;;;;;;;;;;;4999844;28;19914;-26
2022/07/09 08:21:15;;;;;;;;;;;;;;;;;;4982519;28;19964;-32
2022/07/09 08:23:56;;;;;;;;;;;;;;;;;;4999616;28;19914;-24
2022/07/09 08:26:24;;;;;;;;;;;;;;;;;;4999917;28;19921;-25
2022/07/09 08:28:51;;;;;;;;;;;;;;;;;;4999939;28;19914;-25
2022/07/09 08:31:19;;;;;;;;;;;;;;;;;;4983074;28;19913;-27
2022/07/09 08:33:47;;;;;;;;;;;;;;;;;;4982804;28;19914;-23
2022/07/09 08:36:21;;;;;;;;;;;;;;;;;;5000084;28;19913;-24
2022/07/09 08:38:49;;;;;;;;;;;;;;;;;;4999919;28;19909;-28
2022/07/09 08:41:19;;;;;;;;;;;;;;;;;;5000483;28;19968;-28
2022/07/09 08:43:46;;;;;;;;;;;;;;;;;;4982536;28;19921;-29
2022/07/09 08:46:13;;;;;;;;;;;;;;;;;;4999198;28;19936;-23
2022/07/09 08:48:39;;;;;;;;;;;;;;;;;;4999404;28;19913;-27
2022/07/09 08:51:08;;;;;;;;;;;;;;;;;;4982820;28;20010;-29
2022/07/09 08:53:36;;;;;;;;;;;;;;;;;;4999095;28;19910;-28
2022/07/09 08:56:03;;;;;;;;;;;;;;;;;;4999243;28;19914;-28
2022/07/09 08:58:30;;;;;;;;;;;;;;;;;;4982559;28;20264;-28
2022/07/09 09:00:58;;;;;;;;;;;;;;;;;;4982082;28;20252;-27
2022/07/09 09:03:29;;;;;;;;;;;;;;;;;;4982146;28;19930;-26
2022/07/09 09:05:57;;;;;;;;;;;;;;;;;;4998078;28;19913;-32
2022/07/09 09:08:24;;;;;;;;;;;;;;;;;;4998628;28;19910;-26
2022/07/09 09:10:50;;;;;;;;;;;;;;;;;;4999762;28;19914;-30
2022/07/09 09:13:18;;;;;;;;;;;;;;;;;;4997787;28;19910;-28
2022/07/09 09:15:45;;;;;;;;;;;;;;;;;;4997552;28;19949;-26
2022/07/09 09:18:12;;;;;;;;;;;;;;;;;;4998673;28;19910;-27
2022/07/09 09:20:40;;;;;;;;;;;;;;;;;;4997589;28;19984;-27
2022/07/09 09:23:10;;;;;;;;;;;;;;;;;;4998780;28;20423;-29
2022/07/09 09:25:37;;;;;;;;;;;;;;;;;;4997722;28;19918;-28
2022/07/09 09:28:05;;;;;;;;;;;;;;;;;;4999756;28;19914;-31
2022/07/09 09:30:32;;;;;;;;;;;;;;;;;;4998534;28;19984;-29
2022/07/09 09:32:59;;;;;;;;;;;;;;;;;;4998688;28;19941;-28
2022/07/09 09:35:26;;;;;;;;;;;;;;;;;;4997619;28;19941;-25
2022/07/09 09:37:53;;;;;;;;;;;;;;;;;;4996947;28;19910;-28
2022/07/09 09:40:20;;;;;;;;;;;;;;;;;;4998037;28;20017;-25
2022/07/09 09:42:47;;;;;;;;;;;;;;;;;;4998738;28;19987;-29
2022/07/09 09:45:15;;;;;;;;;;;;;;;;;;4998864;28;19921;-30
2022/07/09 10:04:33;;;;;;;;;;;;;;;;;;4992021;26;19926;-25
2022/07/09 10:07:01;;;;;;;;;;;;;;;;;;5018190;28;19917;-25
2022/07/09 10:09:29;;;;;;;;;;;;;;;;;;5018285;28;19918;-30
2022/07/09 10:11:57;;;;;;;;;;;;;;;;;;5016456;28;19913;-25
2022/07/09 10:14:24;;;;;;;;;;;;;;;;;;4998560;28;20255;-25
2022/07/09 10:16:52;;;;;;;;;;;;;;;;;;4997867;28;19956;-25
2022/07/09 10:19:22;;;;;;;;;;;;;;;;;;4980742;28;19976;-25
2022/07/09 10:21:51;;;;;;;;;;;;;;;;;;4999043;28;19964;-24
2022/07/09 10:24:18;;;;;;;;;;;;;;;;;;4997707;28;19910;-28
2022/07/09 10:26:49;;;;;;;;;;;;;;;;;;4998143;28;19914;-24
2022/07/09 10:29:17;;;;;;;;;;;;;;;;;;4981051;28;19914;-24
2022/07/09 10:31:47;;;;;;;;;;;;;;;;;;4980970;28;20041;-25
2022/07/09 10:34:14;;;;;;;;;;;;;;;;;;4998027;28;19914;-25
2022/07/09 10:36:42;;;;;;;;;;;;;;;;;;4998195;28;20221;-24
2022/07/09 10:39:09;;;;;;;;;;;;;;;;;;4997637;28;20009;-25
2022/07/09 10:41:38;;;;;;;;;;;;;;;;;;4982059;28;19910;-25
2022/07/09 10:44:06;;;;;;;;;;;;;;;;;;4997678;28;20311;-25
2022/07/09 10:46:33;;;;;;;;;;;;;;;;;;4980313;28;20329;-24
2022/07/09 10:49:01;;;;;;;;;;;;;;;;;;4982032;28;19918;-25
2022/07/09 10:51:28;;;;;;;;;;;;;;;;;;5001727;28;20017;-24
2022/07/09 10:53:55;;;;;;;;;;;;;;;;;;5001523;28;19925;-24
2022/07/09 10:56:24;;;;;;;;;;;;;;;;;;5001731;28;19910;-25
2022/07/09 10:58:51;;;;;;;;;;;;;;;;;;5001194;28;20282;-25
2022/07/09 11:01:18;;;;;;;;;;;;;;;;;;5001497;28;19914;-24
2022/07/09 11:03:46;;;;;;;;;;;;;;;;;;5001324;28;19928;-25
2022/07/09 11:06:13;;;;;;;;;;;;;;;;;;5001065;28;19918;-24
2022/07/09 11:08:43;;;;;;;;;;;;;;;;;;5001077;28;19914;-24
2022/07/09 11:11:11;;;;;;;;;;;;;;;;;;4983605;28;19925;-25
2022/07/09 11:13:39;;;;;;;;;;;;;;;;;;5000822;28;19953;-25
2022/07/09 11:16:06;;;;;;;;;;;;;;;;;;4983700;28;20012;-24
2022/07/09 11:18:38;;;;;;;;;;;;;;;;;;5001095;28;19980;-24
2022/07/09 11:21:05;;;;;;;;;;;;;;;;;;5001339;28;19944;-24
2022/07/09 11:23:36;;;;;;;;;;;;;;;;;;5000937;28;19933;-26
2022/07/09 11:26:04;;;;;;;;;;;;;;;;;;4983518;28;19918;-25
2022/07/09 11:28:30;;;;;;;;;;;;;;;;;;5001112;28;19913;-24
2022/07/09 11:30:57;;;;;;;;;;;;;;;;;;4984140;28;20094;-24
2022/07/09 11:33:24;;;;;;;;;;;;;;;;;;5000378;28;20249;-24
2022/07/09 11:35:52;;;;;;;;;;;;;;;;;;5000759;28;19909;-25
2022/07/09 11:38:21;;;;;;;;;;;;;;;;;;5000887;28;19961;-24
2022/07/09 11:40:49;;;;;;;;;;;;;;;;;;5000904;28;19918;-24
2022/07/09 11:43:16;;;;;;;;;;;;;;;;;;4983027;28;19910;-24
2022/07/09 11:45:43;;;;;;;;;;;;;;;;;;5000534;28;19914;-24
2022/07/09 11:48:10;;;;;;;;;;;;;;;;;;5000568;28;20379;-25
2022/07/09 11:50:38;;;;;;;;;;;;;;;;;;4983600;28;19910;-24
2022/07/09 11:53:05;;;;;;;;;;;;;;;;;;4983046;28;19948;-24
2022/07/09 11:55:33;;;;;;;;;;;;;;;;;;4982565;28;20005;-24
2022/07/09 11:58:02;;;;;;;;;;;;;;;;;;5000489;28;19918;-25
2022/07/09 12:00:30;;;;;;;;;;;;;;;;;;4999658;28;19926;-24
2022/07/09 12:03:02;;;;;;;;;;;;;;;;;;5000354;28;19930;-25
2022/07/09 12:05:32;;;;;;;;;;;;;;;;;;4983107;28;19969;-24
2022/07/09 12:07:59;;;;;;;;;;;;;;;;;;5000682;28;19913;-24
2022/07/09 12:10:26;;;;;;;;;;;;;;;;;;5000439;28;19956;-24
2022/07/09 12:12:54;;;;;;;;;;;;;;;;;;4999426;28;19914;-24
2022/07/09 12:15:21;;;;;;;;;;;;;;;;;;4982684;28;19910;-24
2022/07/09 12:17:48;;;;;;;;;;;;;;;;;;4999777;28;19917;-24
2022/07/09 12:20:15;;;;;;;;;;;;;;;;;;4982400;28;19925;-25
2022/07/09 12:22:42;;;;;;;;;;;;;;;;;;4999871;28;19914;-25
2022/07/09 12:25:09;;;;;;;;;;;;;;;;;;4999738;28;19910;-25
2022/07/09 12:27:36;;;;;;;;;;;;;;;;;;5000360;28;19924;-24
2022/07/09 12:30:03;;;;;;;;;;;;;;;;;;4982930;28;19914;-25
2022/07/09 12:32:30;;;;;;;;;;;;;;;;;;4999661;28;19956;-25
2022/07/09 12:34:58;;;;;;;;;;;;;;;;;;4982119;28;19909;-24
2022/07/09 12:37:26;;;;;;;;;;;;;;;;;;4999345;28;19914;-25
2022/07/09 12:39:53;;;;;;;;;;;;;;;;;;4999517;28;20205;-25
2022/07/09 12:42:20;;;;;;;;;;;;;;;;;;4982109;28;19922;-25
2022/07/09 12:44:47;;;;;;;;;;;;;;;;;;4999454;28;19914;-25
2022/07/09 12:47:14;;;;;;;;;;;;;;;;;;4999422;28;20249;-24
2022/07/09 12:49:43;;;;;;;;;;;;;;;;;;4999805;28;20020;-25
2022/07/09 12:52:10;;;;;;;;;;;;;;;;;;4999601;28;19914;-25
2022/07/09 12:54:37;;;;;;;;;;;;;;;;;;4999990;28;19921;-24
2022/07/09 12:57:04;;;;;;;;;;;;;;;;;;5000261;28;19925;-25
2022/07/09 12:59:33;;;;;;;;;;;;;;;;;;4999022;28;19924;-24
2022/07/09 13:02:00;;;;;;;;;;;;;;;;;;4998798;28;19917;-24
2022/07/09 13:04:27;;;;;;;;;;;;;;;;;;4981702;28;20361;-25
2022/07/09 13:06:55;;;;;;;;;;;;;;;;;;4998780;28;19910;-25
2022/07/09 13:09:23;;;;;;;;;;;;;;;;;;4981297;28;19957;-24
2022/07/09 13:11:50;;;;;;;;;;;;;;;;;;4998482;28;20013;-25
2022/07/09 13:14:18;;;;;;;;;;;;;;;;;;4981763;28;19968;-25
2022/07/09 13:16:46;;;;;;;;;;;;;;;;;;4982065;28;19914;-25
2022/07/09 13:19:13;;;;;;;;;;;;;;;;;;4999364;28;19914;-25
2022/07/09 13:21:40;;;;;;;;;;;;;;;;;;4998990;28;19979;-25
2022/07/09 13:24:07;;;;;;;;;;;;;;;;;;4999046;28;19920;-25
2022/07/09 13:26:34;;;;;;;;;;;;;;;;;;4998886;28;20361;-25
2022/07/09 13:29:01;;;;;;;;;;;;;;;;;;4981695;28;20302;-25
2022/07/09 13:31:30;;;;;;;;;;;;;;;;;;4998544;28;19946;-25
2022/07/09 13:33:58;;;;;;;;;;;;;;;;;;4998669;28;19929;-24
2022/07/09 13:36:25;;;;;;;;;;;;;;;;;;4998677;28;19920;-24
2022/07/09 13:38:52;;;;;;;;;;;;;;;;;;4998745;28;20304;-25
2022/07/09 13:41:20;;;;;;;;;;;;;;;;;;4998594;28;19917;-25
2022/07/09 13:43:51;;;;;;;;;;;;;;;;;;4997764;28;20215;-25
2022/07/09 13:46:18;;;;;;;;;;;;;;;;;;4980980;28;19932;-25
2022/07/09 13:48:45;;;;;;;;;;;;;;;;;;4998877;28;19910;-24
2022/07/09 13:51:13;;;;;;;;;;;;;;;;;;4998556;28;19910;-25
2022/07/09 13:53:40;;;;;;;;;;;;;;;;;;4998303;28;19949;-25
2022/07/09 13:56:07;;;;;;;;;;;;;;;;;;4998442;28;19910;-25
2022/07/09 13:58:34;;;;;;;;;;;;;;;;;;4980995;28;20375;-25
2022/07/09 14:01:02;;;;;;;;;;;;;;;;;;4998455;28;20014;-25
2022/07/09 14:03:29;;;;;;;;;;;;;;;;;;4998449;28;19922;-24
2022/07/09 14:05:56;;;;;;;;;;;;;;;;;;4980954;28;19910;-25
2022/07/09 14:08:27;;;;;;;;;;;;;;;;;;4998367;28;19914;-25
2022/07/09 14:10:57;;;;;;;;;;;;;;;;;;4997949;28;20077;-25
2022/07/09 14:13:25;;;;;;;;;;;;;;;;;;4998189;28;19957;-25
2022/07/09 14:15:52;;;;;;;;;;;;;;;;;;4980726;28;19914;-25
2022/07/09 14:18:19;;;;;;;;;;;;;;;;;;4998207;28;20007;-24
2022/07/09 14:20:47;;;;;;;;;;;;;;;;;;4998299;28;19914;-24
2022/07/09 14:23:14;;;;;;;;;;;;;;;;;;4980995;28;19976;-25
2022/07/09 14:25:41;;;;;;;;;;;;;;;;;;4984907;28;19913;-24
2022/07/09 14:28:07;;;;;;;;;;;;;;;;;;5002147;28;20013;-25
2022/07/09 14:30:35;;;;;;;;;;;;;;;;;;5001663;28;20252;-25
2022/07/09 14:33:02;;;;;;;;;;;;;;;;;;5001603;28;19914;-24
2022/07/09 14:35:29;;;;;;;;;;;;;;;;;;5001896;28;19914;-24
2022/07/09 14:37:57;;;;;;;;;;;;;;;;;;5002003;28;19910;-24
2022/07/09 14:40:23;;;;;;;;;;;;;;;;;;5001893;28;19929;-24
2022/07/09 14:42:51;;;;;;;;;;;;;;;;;;5001628;28;20277;-24
2022/07/09 14:45:20;;;;;;;;;;;;;;;;;;5002431;28;19925;-25
2022/07/09 14:47:47;;;;;;;;;;;;;;;;;;5002407;28;19921;-24
2022/07/09 14:50:15;;;;;;;;;;;;;;;;;;4985907;28;19941;-25
2022/07/09 14:52:42;;;;;;;;;;;;;;;;;;4984222;28;20333;-25
2022/07/09 14:55:09;;;;;;;;;;;;;;;;;;4984377;28;19914;-24
2022/07/09 14:57:36;;;;;;;;;;;;;;;;;;5001578;28;19914;-25
2022/07/09 15:00:03;;;;;;;;;;;;;;;;;;5001451;28;19914;-24
2022/07/09 15:02:29;;;;;;;;;;;;;;;;;;4983817;28;19921;-25
2022/07/09 15:04:57;;;;;;;;;;;;;;;;;;5001636;28;19918;-25
2022/07/09 15:07:25;;;;;;;;;;;;;;;;;;4983872;28;20273;-24
2022/07/09 15:09:53;;;;;;;;;;;;;;;;;;5000914;28;20441;-24
2022/07/09 15:12:20;;;;;;;;;;;;;;;;;;5001578;28;20011;-25
2022/07/09 15:14:46;;;;;;;;;;;;;;;;;;5001424;28;19993;-24
2022/07/09 15:17:14;;;;;;;;;;;;;;;;;;5001565;28;19909;-25
2022/07/09 15:19:40;;;;;;;;;;;;;;;;;;5000615;28;19918;-25
2022/07/09 15:22:07;;;;;;;;;;;;;;;;;;5000987;28;20041;-24
2022/07/09 15:24:35;;;;;;;;;;;;;;;;;;5000983;28;19914;-24
2022/07/09 15:27:01;;;;;;;;;;;;;;;;;;4983716;28;19925;-24
2022/07/09 15:29:28;;;;;;;;;;;;;;;;;;5001112;28;19940;-29
2022/07/09 15:31:55;;;;;;;;;;;;;;;;;;5000668;28;19924;-25
2022/07/09 15:34:23;;;;;;;;;;;;;;;;;;5000576;28;19976;-25
2022/07/09 15:36:50;;;;;;;;;;;;;;;;;;4999559;28;19928;-24
2022/07/09 15:39:17;;;;;;;;;;;;;;;;;;5000584;28;19918;-25
2022/07/09 15:41:44;;;;;;;;;;;;;;;;;;5000817;28;19981;-25
2022/07/09 15:44:13;;;;;;;;;;;;;;;;;;5000808;28;19942;-25
2022/07/09 15:46:40;;;;;;;;;;;;;;;;;;5000602;28;19918;-24
2022/07/09 15:49:07;;;;;;;;;;;;;;;;;;5000997;28;19910;-25
2022/07/09 15:51:34;;;;;;;;;;;;;;;;;;5000169;28;19914;-25
2022/07/09 15:54:01;;;;;;;;;;;;;;;;;;5000816;28;19910;-25
2022/07/09 15:56:28;;;;;;;;;;;;;;;;;;5000608;28;20008;-25
2022/07/09 15:58:56;;;;;;;;;;;;;;;;;;5001081;28;20327;-25
2022/07/09 16:01:25;;;;;;;;;;;;;;;;;;4999914;28;20001;-25
2022/07/09 16:03:52;;;;;;;;;;;;;;;;;;4999804;28;20044;-25
2022/07/09 16:06:19;;;;;;;;;;;;;;;;;;5000764;28;19925;-24
2022/07/09 16:08:46;;;;;;;;;;;;;;;;;;5000202;28;20004;-24
2022/07/09 16:13:58;;;;;;;;;;;;;;;;;;5000157;28;20264;-24
2022/07/09 16:16:25;;;;;;;;;;;;;;;;;;5000060;28;19988;-25
2022/07/09 16:18:51;;;;;;;;;;;;;;;;;;4999803;28;20005;-25
2022/07/09 16:21:19;;;;;;;;;;;;;;;;;;5000045;28;19976;-25
2022/07/09 16:23:46;;;;;;;;;;;;;;;;;;4999843;28;19960;-24
2022/07/09 16:26:12;;;;;;;;;;;;;;;;;;4999940;28;19997;-24
2022/07/09 16:28:39;;;;;;;;;;;;;;;;;;4982615;28;20307;-25
2022/07/09 16:31:06;;;;;;;;;;;;;;;;;;4999872;28;19936;-25
2022/07/09 16:33:35;;;;;;;;;;;;;;;;;;4999335;28;19914;-24
2022/07/09 16:36:02;;;;;;;;;;;;;;;;;;4982569;28;20337;-25
2022/07/09 16:38:29;;;;;;;;;;;;;;;;;;4983105;28;19914;-25
2022/07/09 16:40:56;;;;;;;;;;;;;;;;;;4999548;28;19937;-24
2022/07/09 16:43:23;;;;;;;;;;;;;;;;;;4982103;28;19914;-25
2022/07/09 16:45:50;;;;;;;;;;;;;;;;;;4999757;28;19917;-25
2022/07/09 16:48:17;;;;;;;;;;;;;;;;;;4981672;28;19921;-25
2022/07/09 16:50:44;;;;;;;;;;;;;;;;;;4999439;28;19914;-25
2022/07/09 16:53:12;;;;;;;;;;;;;;;;;;4981668;28;19972;-25
2022/07/09 16:55:39;;;;;;;;;;;;;;;;;;4982255;28;19924;-24
2022/07/09 16:58:06;;;;;;;;;;;;;;;;;;4998879;28;20329;-24
2022/07/09 17:00:33;;;;;;;;;;;;;;;;;;4981927;28;20340;-24
2022/07/09 17:03:00;;;;;;;;;;;;;;;;;;4999014;28;20324;-25
2022/07/09 17:05:27;;;;;;;;;;;;;;;;;;4998934;28;19914;-25
2022/07/09 17:07:54;;;;;;;;;;;;;;;;;;4999154;28;19992;-25
2022/07/09 17:10:21;;;;;;;;;;;;;;;;;;4999118;28;19965;-25
2022/07/09 17:12:48;;;;;;;;;;;;;;;;;;4999360;28;19914;-25
2022/07/09 17:15:15;;;;;;;;;;;;;;;;;;4999232;28;20260;-24
2022/07/09 17:17:43;;;;;;;;;;;;;;;;;;4998835;28;19914;-24
2022/07/09 17:20:10;;;;;;;;;;;;;;;;;;4981588;28;19918;-24
2022/07/09 17:22:37;;;;;;;;;;;;;;;;;;4998958;28;19949;-25
2022/07/09 17:25:05;;;;;;;;;;;;;;;;;;4981829;28;20001;-25
2022/07/09 17:27:32;;;;;;;;;;;;;;;;;;4998474;28;19914;-24
2022/07/09 17:29:59;;;;;;;;;;;;;;;;;;4998837;28;19913;-24
2022/07/09 17:32:26;;;;;;;;;;;;;;;;;;4981344;28;20312;-24
2022/07/09 17:34:53;;;;;;;;;;;;;;;;;;4998631;28;19920;-25
2022/07/09 17:37:21;;;;;;;;;;;;;;;;;;4998949;28;20045;-25
2022/07/09 17:39:47;;;;;;;;;;;;;;;;;;4981349;28;19929;-25